Aktualne dane pomiarowe

Uwaga, wersja testowa! Automatyczne pobieranie danych za pomocą narzędzi lub skryptów to umożliwiających jest zabronione.

Dane meteo z obszaru Polski uzyskane na podstawie depesz SYNOP pobieranych co godzinę z NWS. Najedź myszką na symbol przedstawiony w tabeli, aby uzyskać informacje co do jego znaczenia. Prosimy pamiętać, że to testowa wersja strony, która jeszcze nie jest ukończona. Stworzono również jest krótki FAQ dotyczący korzystania z tej podstrony Anomalie temperatury w chwili obecnej odniesione są do okresu referencyjnego 1951-2016. Okres ten będzie później zmieniony na 1981-2010. Kliknij ikonę aby pobrać plik CSV. Kliknij ikonę aby wygenerować mapę synoptyczną dla danego terminu.

Wybierz Datę:    

        

Łask (12454)

Dane terminowe dla wybranej stacji. Kliknij datę, aby otrzymać dane z tego terminu dla wszystkich stacji.

TemperaturaZachmurzenieWiatrCiśnienieOpadyPogoda
 Data t td wb tx tn tg rh  Nt Nl Cl Cm Ch ws wd g1 g2 wx mslp ppp ch 24h 12h t ww ww w1 w2  
2019-06-22 23:00:00 16.7 10.4 12.8--- 6660.0wx-5wx---1021.4 998.8 1.2---------
2019-06-22 22:00:00 17.8 10.0 13.1--- 6060.0wx-5wx---1021.2 998.6 0.8---------
2019-06-22 21:00:00 17.7 9.1 12.6--- 5730.0wx-wx3wx---1020.7 998.1 0.1---------
2019-06-22 20:00:00 19.1 8.8 13.1--- 5130.0wx-wx3wx---1020.1 997.6 -0.4---------
2019-06-22 19:00:00 20.5 9.0 13.8--- 4830.0wx-wx3wx---1020.2 997.8 -0.4---------
2019-06-22 18:00:00 22.2 8.4 14.3 25.2 19.5- 4130.0wx-wx4wx---1020.2 998.0 -0.2- 0.012------
2019-06-22 17:00:00 22.9 7.9 14.4--- 3870.0wx-wx4wx---1020.2 998.0 -0.6---------
2019-06-22 16:00:00 22.9 6.0 13.6--- 3430.0wxwxwxwx3wx---1020.4 998.2 -0.8---------
2019-06-22 15:00:00 24.1 5.6 14.0--- 3030.0wxwxwxwx4wx---1020.3 998.2 -1.3---------
2019-06-22 14:00:00 24.8 7.9 15.2--- 3430.0wxwxwxwx3wx---1020.6 998.6 -1.2---------
2019-06-22 13:00:00 24.5 8.4 15.3--- 3630.0wxwxwxwx5wx---1021.1 999.0 -0.8---------
2019-06-22 12:00:00 23.6 8.8 15.1--- 3930.0wxwxwxwx4wx---1021.6 999.5 -0.3- 0.06------
2019-06-22 11:00:00 23.2 9.3 15.1--- 4130.0wxwxwxwx4wx---1022.0 999.8 0.1---------
2019-06-22 10:00:00 23.5 9.9 15.5--- 4230.0wxwxwxwx4wx---1021.9 999.8 0.3---------
2019-06-22 09:00:00 22.5 9.3 14.8--- 4330.0wxwxwxwx4wx---1022.0 999.8 0.5---------
2019-06-22 08:00:00 21.7 10.8 15.2--- 5030.0wxwxwxwx4wx---1022.0 999.7 0.7---------
2019-06-22 07:00:00 21.1 12.9 15.9--- 6055.0wx-4wx---1021.8 999.5 0.9---------
2019-06-22 06:00:00 19.5 12.5 15.1 23.9 16.2- 6430.0wxwxwxwx5wx---1021.7 999.3 1.3 0.7 0.012------
2019-06-22 05:00:00 18.3 14.4 15.7--- 7830.0wxwxwxwx4wx---1021.5 999.0 1.7---------
2019-06-22 04:00:00 16.8 15.6 15.9--- 938.0wxwxwxwx3wx---1021.2 998.6 1.7---wx---
2019-06-22 03:00:00 16.2 15.5 15.7--- 968.0wx-3wx---1020.7 998.1 1.6---------
2019-06-22 02:00:00 16.9 16.1 16.3--- 959.0wx-4wx---1019.8 997.3 0.9---------
2019-06-22 01:00:00 16.7 14.7 15.3--- 8830.0wx-3wx---1019.4 996.9 1.0---------
2019-06-22 00:00:00 17.0 14.3 15.1--- 8445.0wx-2wx---1019.0 996.4 1.0- 0.06------
2019-06-21 23:00:00 17.4 13.9 15.0--- 8040.0wx-2wx---1018.9 996.4 1.3---------
2019-06-21 22:00:00 18.6 13.8 15.4--- 7450.0wx-2wx---1018.2 995.8 1.8---------
2019-06-21 21:00:00 19.2 13.2 15.3--- 6830.0wx-wxwx2wx---1017.8 995.4 1.7---------
2019-06-21 20:00:00 20.2 13.6 15.9--- 6630.0wx-wxwx2wx---1017.3 995.0 1.5---------
2019-06-21 19:00:00 22.4 15.0 17.6--- 6330.0wx-wxwx3wx---1016.1 994.0 1.3---------
2019-06-21 18:00:00 23.9 13.4 17.3 28.0 21.8- 5230.0wxwxwxwxwx4wx---1015.6 993.7 1.1- 0.712------
2019-06-21 17:00:00 23.7 13.7 17.4--- 5430.0wxwxwxwx3wx-11-1015.4 993.5 1.0---------
2019-06-21 16:00:00 24.3 13.7 17.6--- 5230.0wxwxwxwx5wx---1014.7 992.8 -0.2---------
2019-06-21 15:00:00 25.5 14.0 18.3--- 4930.0wxwxwxwxwx6wx---1014.5 992.7 0.0---------
2019-06-21 14:00:00 25.5 17.9 20.4--- 6330.0wxwxwxwxwx4wx---1014.2 992.5 0.5---------
2019-06-21 13:00:00 23.3 17.6 19.4--- 7030.0wxwxwxwx2wx---1014.9 993.0 0.4---wx-w1w2--
2019-06-21 12:00:00 22.8 16.0 18.3--- 6630.0wxwxwxwx5wx---1014.7 992.7 0.3- 0.16wx---
2019-06-21 11:00:00 27.0 15.0 19.4--- 4830.0wxwxwxwx5wx---1013.6 992.0 -0.1---------
2019-06-21 10:00:00 27.1 15.0 19.4--- 4830.0wxwxwxwx4wx---1014.2 992.6 0.6---------
2019-06-21 09:00:00 26.8 15.9 19.8--- 5130.0wxwxwxwx3wx---1014.2 992.5 0.7---------
2019-06-21 08:00:00 25.3 15.9 19.2--- 5630.0wx-wx3wx---1013.9 992.1 0.6---------
2019-06-21 07:00:00 23.4 15.8 18.4--- 6230.0wx-wx4wx---1013.9 992.0 0.9---------
2019-06-21 06:00:00 22.1 15.5 17.7 23.9 15.3- 6630.0wx-wx1wx---1013.7 991.7 0.8 0.0 0.012------
2019-06-21 05:00:00 19.5 15.7 16.9--- 7930.0wx-wx1----1013.7 991.5 1.2---------
2019-06-21 04:00:00 16.2 14.9 15.3--- 9229.0wx-wxwx1wx---1013.6 991.1 1.1---------
2019-06-21 03:00:00 15.7 14.4 14.8--- 9229.0wx-0----1013.4 990.9 1.4---------
2019-06-21 02:00:00 16.6 14.3 15.0--- 8635.0wx-2wx---1012.7 990.3 0.6---------
2019-06-21 01:00:00 17.5 14.6 15.5--- 8340.0wx-2wx---1012.4 990.1 0.6---------
2019-06-21 00:00:00 16.6 14.8 15.3--- 8930.0wx-2wx---1011.9 989.5 0.3- 0.06------
9.5 ms

 

Print Friendly, PDF & Email